Time,TemperatureF,DewpointF,PressureIn,WindDirection,WindDirectionDegrees,WindSpeedMPH,WindSpeedGustMPH,Humidity,HourlyPrecipIn,Conditions,Clouds,dailyrainin,SolarRadiationWatts/m^2,SoftwareType,DateUTC
2013-09-05 00:00:00,79.9,76.4,30.06,West,261,0.0,0.0,89,0.00,,---,0.00,0.00,VWS V14.00,2013-09-05 04:00:00,
2013-09-05 00:30:00,79.8,76.3,30.06,West,261,0.0,0.0,89,0.00,,---,0.00,0.00,VWS V14.00,2013-09-05 04:30:00,
2013-09-05 01:00:00,79.5,76.3,30.06,West,261,0.0,0.0,90,0.00,,---,0.00,0.00,VWS V14.00,2013-09-05 05:00:00,
2013-09-05 01:30:00,79.8,76.6,30.05,West,261,0.0,0.0,90,0.00,,---,0.00,0.00,VWS V14.00,2013-09-05 05:30:00,
2013-09-05 02:00:00,80.0,76.5,30.03,West,261,0.0,1.0,89,0.00,,---,0.00,0.00,VWS V14.00,2013-09-05 06:00:00,
2013-09-05 02:30:00,80.2,76.7,30.03,West,261,0.0,1.0,89,0.00,,---,0.00,0.00,VWS V14.00,2013-09-05 06:30:00,
2013-09-05 03:00:00,80.3,76.4,30.02,West,261,0.0,1.0,88,0.00,,---,0.00,0.00,VWS V14.00,2013-09-05 07:00:00,
2013-09-05 03:30:00,80.0,76.1,30.02,West,261,0.0,1.0,88,0.00,,---,0.00,0.00,VWS V14.00,2013-09-05 07:30:00,
2013-09-05 04:00:00,79.5,75.6,30.02,West,261,0.0,0.0,88,0.00,,---,0.00,0.00,VWS V14.00,2013-09-05 08:00:00,
2013-09-05 04:30:00,79.1,75.6,30.02,West,261,0.0,0.0,89,0.00,,---,0.00,0.00,VWS V14.00,2013-09-05 08:30:00,
2013-09-05 05:00:00,78.7,75.5,30.02,West,261,0.0,0.0,90,0.00,,---,0.00,0.00,VWS V14.00,2013-09-05 09:00:00,
2013-09-05 05:30:00,78.6,75.4,30.03,West,261,0.0,0.0,90,0.00,,---,0.00,0.00,VWS V14.00,2013-09-05 09:30:00,
2013-09-05 06:00:00,78.2,75.0,30.03,West,261,0.0,0.0,90,0.00,,---,0.00,0.00,VWS V14.00,2013-09-05 10:00:00,
2013-09-05 06:30:00,78.1,74.9,30.04,West,261,0.0,0.0,90,0.00,,---,0.00,0.00,VWS V14.00,2013-09-05 10:30:00,
2013-09-05 07:00:00,77.8,74.6,30.05,West,261,0.0,0.0,90,0.00,,---,0.00,0.00,VWS V14.00,2013-09-05 11:00:00,
2013-09-05 07:30:00,78.1,74.9,30.06,West,261,0.0,0.0,90,0.00,,---,0.00,42.00,VWS V14.00,2013-09-05 11:30:00,
2013-09-05 08:00:00,78.7,75.5,30.06,West,261,0.0,0.0,90,0.00,,---,0.00,91.00,VWS V14.00,2013-09-05 12:00:00,
2013-09-05 08:30:00,78.7,75.5,30.06,West,261,0.0,0.0,90,0.00,,---,0.00,114.00,VWS V14.00,2013-09-05 12:30:00,
2013-09-05 09:00:00,78.7,75.5,30.06,West,261,0.0,0.0,90,0.00,,---,0.00,162.00,VWS V14.00,2013-09-05 13:00:00,
2013-09-05 09:30:00,84.3,79.3,30.08,West,272,0.0,6.0,85,0.00,,---,0.00,376.00,VWS V14.00,2013-09-05 13:30:00,
2013-09-05 10:00:00,85.5,78.2,30.08,WNW,298,0.0,5.0,79,0.00,,---,0.00,134.00,VWS V14.00,2013-09-05 14:00:00,
2013-09-05 10:30:00,85.8,78.9,30.08,WNW,298,0.0,2.0,80,0.00,,---,0.00,555.00,VWS V14.00,2013-09-05 14:30:00,
2013-09-05 11:00:00,85.5,78.2,30.08,ENE,61,0.0,3.0,79,0.00,,---,0.00,211.00,VWS V14.00,2013-09-05 15:00:00,
2013-09-05 11:30:00,88.4,79.5,30.08,SW,230,0.0,9.0,75,0.00,,---,0.00,721.00,VWS V14.00,2013-09-05 15:30:00,
2013-09-05 12:00:00,88.8,79.0,30.08,SW,230,1.0,1.0,73,0.00,,---,0.00,1120.00,VWS V14.00,2013-09-05 16:00:00,
2013-09-05 12:30:00,89.3,78.7,30.07,East,90,0.0,4.0,71,0.00,,---,0.00,754.00,VWS V14.00,2013-09-05 16:30:00,
2013-09-05 13:00:00,89.1,78.9,30.07,NNE,21,0.0,4.0,72,0.00,,---,0.00,334.00,VWS V14.00,2013-09-05 17:00:00,
2013-09-05 13:30:00,90.2,79.5,30.06,South,169,0.0,7.0,71,0.00,,---,0.00,998.00,VWS V14.00,2013-09-05 17:30:00,
2013-09-05 14:00:00,88.0,77.8,30.05,NE,48,0.0,8.0,72,0.00,,---,0.00,288.00,VWS V14.00,2013-09-05 18:00:00,
2013-09-05 14:30:00,88.2,78.4,30.05,SSE,156,0.0,9.0,73,0.00,,---,0.00,545.00,VWS V14.00,2013-09-05 18:30:00,
2013-09-05 15:00:00,89.1,78.5,30.03,North,355,0.0,6.0,71,0.00,,---,0.00,993.00,VWS V14.00,2013-09-05 19:00:00,
2013-09-05 15:30:00,87.8,78.1,30.03,NW,321,0.0,6.0,73,0.00,,---,0.00,401.00,VWS V14.00,2013-09-05 19:30:00,
2013-09-05 16:00:00,87.1,78.6,30.02,WNW,284,0.0,8.0,76,0.00,,---,0.00,482.00,VWS V14.00,2013-09-05 20:00:00,
2013-09-05 16:30:00,86.6,78.5,30.01,NW,322,0.0,6.0,77,0.00,,---,0.00,605.00,VWS V14.00,2013-09-05 20:30:00,
2013-09-05 17:00:00,86.0,77.6,30.02,West,263,0.0,5.0,76,0.00,,---,0.00,204.00,VWS V14.00,2013-09-05 21:00:00,
2013-09-05 17:30:00,84.9,76.5,30.02,West,275,0.0,2.0,76,0.00,,---,0.00,123.00,VWS V14.00,2013-09-05 21:30:00,
2013-09-05 18:00:00,84.3,77.1,30.02,West,275,0.0,2.0,79,0.00,,---,0.00,123.00,VWS V14.00,2013-09-05 22:00:00,
2013-09-05 18:30:00,83.8,77.0,30.02,West,275,0.0,2.0,80,0.00,,---,0.00,49.00,VWS V14.00,2013-09-05 22:30:00,
2013-09-05 19:00:00,83.2,77.1,30.01,West,275,0.0,1.0,82,0.00,,---,0.00,30.00,VWS V14.00,2013-09-05 23:00:00,
2013-09-05 19:30:00,82.7,77.0,30.01,West,275,0.0,1.0,83,0.00,,---,0.00,0.00,VWS V14.00,2013-09-05 23:30:00,
2013-09-05 20:00:00,82.2,76.5,30.03,West,275,0.0,1.0,83,0.00,,---,0.00,0.00,VWS V14.00,2013-09-06 00:00:00,
2013-09-05 20:30:00,81.9,76.6,30.03,West,275,0.0,0.0,84,0.00,,---,0.00,0.00,VWS V14.00,2013-09-06 00:30:00,
2013-09-05 21:00:00,81.8,76.5,30.04,West,275,0.0,0.0,84,0.00,,---,0.00,0.00,VWS V14.00,2013-09-06 01:00:00,
2013-09-05 21:30:00,81.5,76.6,30.04,West,275,0.0,0.0,85,0.00,,---,0.00,0.00,VWS V14.00,2013-09-06 01:30:00,
2013-09-05 22:00:00,81.2,76.3,30.05,West,275,0.0,0.0,85,0.00,,---,0.00,0.00,VWS V14.00,2013-09-06 02:00:00,
2013-09-05 22:30:00,80.9,76.3,30.06,West,275,0.0,0.0,86,0.00,,---,0.00,0.00,VWS V14.00,2013-09-06 02:30:00,
2013-09-05 23:00:00,80.8,76.2,30.06,West,275,0.0,0.0,86,0.00,,---,0.00,0.00,VWS V14.00,2013-09-06 03:00:00,
2013-09-05 23:30:00,80.5,75.9,30.05,West,275,0.0,0.0,86,0.00,,---,0.00,0.00,VWS V14.00,2013-09-06 03:30:00,